YPQ weather

Peterborough Airport
Peterborough, Ontario, Canada

Public forecast

Using degrees Celsius for public forecast. Weather courtesy of forecast.io.

Current aviation weather report (METAR) for Peterborough Airport

Retrieved 2019/12/06 02:00 UTC (54 minutes ago):

CYPQ 060200Z AUTO 00000KT 9SM BKN039 OVC120 M05/M07 A3001 RMK SLP175

Aviation forecast (TAF) for Peterborough Airport

Forecast is more than 6 hours old.

Retrieved 2019/12/05 20:00 UTC (7 hours ago):

TAF CYPQ 051938Z 0520/0603 29012KT P6SM SCT020 BKN040 TEMPO 0520/0603 P6SM -SHSN BKN020 OVC030 BECMG 0521/0523 29006KT RMK FCST BASED ON AUTO OBS NXT FCST WILL BE ISSUED AT 061045Z